Aérodrome :
LOGIN :

S'inscrire | Disclaimer

   EN    FR    IT 

 










Légende :    VFR   VFR Marginal   IFR   IFR Intensif   IFR Très Intensif
Visi : 
Plafond : 
>= 8 km
>= 3000ft
5 à 8 km
1000 à 3000 ft
1500m à 5 km
500 à 1000 ft
800 à 1500m
200 à 500 ft
< 800m
< 200 ft
Symboles :   Orages  Brouillard  Fortes neiges  Fortes précipitations  Vent > 20 kt
SIGMETs :   Divers  Orages  Givrage  Turbulence  Onde Orograph.  Cendres Volcan.







- Altitude de l'aérodrome : 289 ft
- Code IATA : BSK


DAUB - Mohamed Khider

DERNIER METAR :
  • 170900Z 11005KT 9999 FEW040 22/13 Q1026

METARs EXPIRÉS :
  • 170800Z 12005KT CAVOK 21/11 Q1026
  • 170700Z 00000KT CAVOK 18/10 Q1026

TAF TAF DAUB
Valide du 17 à 06h jusqu'au 18 à 06h UTC


170500Z 1706/1806 32008KT 9999 FEW040
BECMG 1707/1709 20008KT
BECMG 1719/1721 01010KT
Pas de NOTAMs connus pour ce terrain.



MET'MAP, la Météo Aéronautique d'un coup d'oeil ! - Copyright ORBIFLY Décembre 2007 - Disclaimer

ORBIFLY MET'MAP TEAM :

Programmation & Développement : Alexandra Zaïnal
Conception & Développement : Baudouin d'Aumeries
Co-Programmation & Développement : Marc-Olivier Méhu
Soutien technique & logistique : Manuel Goepfert

Contact : metmap@orbifly.com




SOURCES & CREDITS :

   NOAA